Lord Of The Glens — ZQOE9 — position and weather

sailwx.info

Track history (hours):
 
Tides and Currents Weather Stations Pressure Air Temp Water Temp Dewpoint Dewpoint Depression Visibility Wind Speed Wind Dir Waves Ship Positions

Lord Of The Glens

Operator: V Ships UK Ltd

Last reported at 2017-Jun-23 16:47 UTC. Time now 2017-Jun-23 18:49 UTC.
Position N 56°31' W 005°45'.

Length 45 m; draft 2.8 m.

Type: Passenger vessel. MMSI: 235000295.

Date/timePositionNaut miles runAvg speedWind from/ knotsBaromVisibWave heightAir tempDewpointWater temp
2017-Jun-23 16:47N 56°31' W 005°45'2 8.1
2017-Jun-23 16:30N 56°29' W 005°42'0 0.7
2017-Jun-23 16:00N 56°28' W 005°42'0 0.0
2017-Jun-23 15:25N 56°28' W 005°42'0 0.0
2017-Jun-23 15:00N 56°28' W 005°42'0 0.0
2017-Jun-23 14:00N 56°28' W 005°42'0 0.0
2017-Jun-23 13:29N 56°28' W 005°42'0 0.0
2017-Jun-23 12:45N 56°28' W 005°42'0 0.0
2017-Jun-23 12:27N 56°28' W 005°42'0 0.0
2017-Jun-23 11:57N 56°28' W 005°42'0 0.0
2017-Jun-23 11:12N 56°28' W 005°42'0 0.0
2017-Jun-23 10:57N 56°28' W 005°42'0 0.0
2017-Jun-23 10:30N 56°28' W 005°42'0 0.0
2017-Jun-23 10:00N 56°28' W 005°42'0 0.0
2017-Jun-23 09:28N 56°28' W 005°42'0 0.0
2017-Jun-23 08:44N 56°28' W 005°42'0 0.0
2017-Jun-23 08:17N 56°28' W 005°42'0 0.0
2017-Jun-23 07:59N 56°28' W 005°42'0 0.0
2017-Jun-23 07:30N 56°28' W 005°42'0 0.0
2017-Jun-23 06:58N 56°28' W 005°42'3 6.5
2017-Jun-23 06:30N 56°27' W 005°37'4 8.8
2017-Jun-23 06:01N 56°26' W 005°30'1 1.7
2017-Jun-23 05:23N 56°25' W 005°29'0 0.0
2017-Jun-23 04:53N 56°25' W 005°29'0 0.0
2017-Jun-23 04:29N 56°25' W 005°29'0 0.0
2017-Jun-23 03:59N 56°25' W 005°29'0 0.0
2017-Jun-23 03:26N 56°25' W 005°29'0 0.0
2017-Jun-23 02:56N 56°25' W 005°29'0 0.0
2017-Jun-23 02:29N 56°25' W 005°29'0 0.0
2017-Jun-23 01:59N 56°25' W 005°29'0 0.0
2017-Jun-23 01:23N 56°25' W 005°29'0 0.0
2017-Jun-23 00:59N 56°25' W 005°29'0 0.0
2017-Jun-23 00:26N 56°25' W 005°29'0 0.0
2017-Jun-22 23:59N 56°25' W 005°29'0 0.0
2017-Jun-22 23:29N 56°25' W 005°29'0 0.0
2017-Jun-22 22:59N 56°25' W 005°29'0 0.0
2017-Jun-22 22:29N 56°25' W 005°29'0 0.0
2017-Jun-22 21:53N 56°25' W 005°29'0 0.0
2017-Jun-22 21:29N 56°25' W 005°29'0 0.0
2017-Jun-22 20:59N 56°25' W 005°29'0 0.0
2017-Jun-22 20:26N 56°25' W 005°29'0 0.0
2017-Jun-22 19:56N 56°25' W 005°29'0 0.0
2017-Jun-22 19:29N 56°25' W 005°29'0 0.0
2017-Jun-22 18:59N 56°25' W 005°29'0 0.0
2017-Jun-22 18:29N 56°25' W 005°29'0 0.0
2017-Jun-22 17:59N 56°25' W 005°29'0 0.0
2017-Jun-22 16:59N 56°25' W 005°29'0 0.0
2017-Jun-22 16:29N 56°25' W 005°29'0 0.0
2017-Jun-22 15:53N 56°25' W 005°29'0 0.0
2017-Jun-22 15:29N 56°25' W 005°29'0 0.0
2017-Jun-22 13:26N 56°25' W 005°29'0 0.0
2017-Jun-22 12:59N 56°25' W 005°29'0 0.0
2017-Jun-22 12:26N 56°25' W 005°29'0 0.0
2017-Jun-22 11:59N 56°25' W 005°29'0 0.0
2017-Jun-22 11:29N 56°25' W 005°29'0 0.0
2017-Jun-22 10:59N 56°25' W 005°29'1 2.8
2017-Jun-22 10:30N 56°26' W 005°30'4 8.9
2017-Jun-22 10:01N 56°30' W 005°28'4 8.8
2017-Jun-22 09:31N 56°34' W 005°24'4 8.1
2017-Jun-22 09:00N 56°38' W 005°21'4 8.3
2017-Jun-22 08:30N 56°41' W 005°17'510.2
2017-Jun-22 08:00N 56°46' W 005°12'  
2017-Jun-16 12:35N 56°47' W 005°10'111.2
2017-Jun-16 12:28N 56°46' W 005°12'510.4
2017-Jun-16 12:00N 56°42' W 005°16'510.6
2017-Jun-16 11:30N 56°37' W 005°22'5 9.8
2017-Jun-16 11:00N 56°33' W 005°26'510.6
2017-Jun-16 10:30N 56°28' W 005°30'3 0.2
2017-Jun-15 20:12N 56°25' W 005°29'0 0.0
2017-Jun-15 17:22N 56°25' W 005°29'1 2.8
2017-Jun-15 17:00N 56°26' W 005°30'510.2
2017-Jun-15 16:29N 56°28' W 005°39'2 0.8
2017-Jun-15 13:54N 56°28' W 005°42'0 0.0
2017-Jun-15 13:30N 56°28' W 005°42'0 0.0
2017-Jun-15 12:59N 56°28' W 005°42'0 0.0
2017-Jun-15 12:30N 56°28' W 005°42'0 0.0
2017-Jun-15 11:57N 56°28' W 005°42'0 0.0
2017-Jun-15 11:04N 56°28' W 005°42'0 0.0
2017-Jun-15 11:00N 56°28' W 005°42'0 0.0
2017-Jun-15 10:30N 56°28' W 005°42'0 0.0
2017-Jun-15 10:00N 56°28' W 005°42'0 0.0
2017-Jun-15 09:23N 56°28' W 005°42'0 0.0
2017-Jun-15 09:00N 56°28' W 005°42'0 0.0
2017-Jun-15 08:30N 56°28' W 005°42'0 0.0
2017-Jun-15 08:00N 56°28' W 005°42'0 0.0
2017-Jun-15 07:30N 56°28' W 005°42'0 0.0
2017-Jun-15 07:00N 56°28' W 005°42'3 4.2
2017-Jun-15 06:25N 56°30' W 005°45'  
Track history (hours):
 
Tides and Currents Weather Stations Pressure Air Temp Water Temp Dewpoint Dewpoint Depression Visibility Wind Speed Wind Dir Waves Ship Positions

Lord Of The Glens

Operator: V Ships UK Ltd

Last reported at 2017-Jun-23 16:47 UTC. Time now 2017-Jun-23 18:49 UTC.
Position N 56°31' W 005°45'.

Length 45 m; draft 2.8 m.

Type: Passenger vessel. MMSI: 235000295.

Date/timePositionNaut miles runAvg speedWind from/ knotsBaromVisibWave heightAir tempDewpointWater temp
2017-Jun-23 16:47N 56°31' W 005°45'2 8.1
2017-Jun-23 16:30N 56°29' W 005°42'0 0.7
2017-Jun-23 16:00N 56°28' W 005°42'0 0.0
2017-Jun-23 15:25N 56°28' W 005°42'0 0.0
2017-Jun-23 15:00N 56°28' W 005°42'0 0.0
2017-Jun-23 14:00N 56°28' W 005°42'0 0.0
2017-Jun-23 13:29N 56°28' W 005°42'0 0.0
2017-Jun-23 12:45N 56°28' W 005°42'0 0.0
2017-Jun-23 12:27N 56°28' W 005°42'0 0.0
2017-Jun-23 11:57N 56°28' W 005°42'0 0.0
2017-Jun-23 11:12N 56°28' W 005°42'0 0.0
2017-Jun-23 10:57N 56°28' W 005°42'0 0.0
2017-Jun-23 10:30N 56°28' W 005°42'0 0.0
2017-Jun-23 10:00N 56°28' W 005°42'0 0.0
2017-Jun-23 09:28N 56°28' W 005°42'0 0.0
2017-Jun-23 08:44N 56°28' W 005°42'0 0.0
2017-Jun-23 08:17N 56°28' W 005°42'0 0.0
2017-Jun-23 07:59N 56°28' W 005°42'0 0.0
2017-Jun-23 07:30N 56°28' W 005°42'0 0.0
2017-Jun-23 06:58N 56°28' W 005°42'3 6.5
2017-Jun-23 06:30N 56°27' W 005°37'4 8.8
2017-Jun-23 06:01N 56°26' W 005°30'1 1.7
2017-Jun-23 05:23N 56°25' W 005°29'0 0.0
2017-Jun-23 04:53N 56°25' W 005°29'0 0.0
2017-Jun-23 04:29N 56°25' W 005°29'0 0.0
2017-Jun-23 03:59N 56°25' W 005°29'0 0.0
2017-Jun-23 03:26N 56°25' W 005°29'0 0.0
2017-Jun-23 02:56N 56°25' W 005°29'0 0.0
2017-Jun-23 02:29N 56°25' W 005°29'0 0.0
2017-Jun-23 01:59N 56°25' W 005°29'0 0.0
2017-Jun-23 01:23N 56°25' W 005°29'0 0.0
2017-Jun-23 00:59N 56°25' W 005°29'0 0.0
2017-Jun-23 00:26N 56°25' W 005°29'0 0.0
2017-Jun-22 23:59N 56°25' W 005°29'0 0.0
2017-Jun-22 23:29N 56°25' W 005°29'0 0.0
2017-Jun-22 22:59N 56°25' W 005°29'0 0.0
2017-Jun-22 22:29N 56°25' W 005°29'0 0.0
2017-Jun-22 21:53N 56°25' W 005°29'0 0.0
2017-Jun-22 21:29N 56°25' W 005°29'0 0.0
2017-Jun-22 20:59N 56°25' W 005°29'0 0.0
2017-Jun-22 20:26N 56°25' W 005°29'0 0.0
2017-Jun-22 19:56N 56°25' W 005°29'0 0.0
2017-Jun-22 19:29N 56°25' W 005°29'0 0.0
2017-Jun-22 18:59N 56°25' W 005°29'0 0.0
2017-Jun-22 18:29N 56°25' W 005°29'0 0.0
2017-Jun-22 17:59N 56°25' W 005°29'0 0.0
2017-Jun-22 16:59N 56°25' W 005°29'0 0.0
2017-Jun-22 16:29N 56°25' W 005°29'0 0.0
2017-Jun-22 15:53N 56°25' W 005°29'0 0.0
2017-Jun-22 15:29N 56°25' W 005°29'0 0.0
2017-Jun-22 13:26N 56°25' W 005°29'0 0.0
2017-Jun-22 12:59N 56°25' W 005°29'0 0.0
2017-Jun-22 12:26N 56°25' W 005°29'0 0.0
2017-Jun-22 11:59N 56°25' W 005°29'0 0.0
2017-Jun-22 11:29N 56°25' W 005°29'0 0.0
2017-Jun-22 10:59N 56°25' W 005°29'1 2.8
2017-Jun-22 10:30N 56°26' W 005°30'4 8.9
2017-Jun-22 10:01N 56°30' W 005°28'4 8.8
2017-Jun-22 09:31N 56°34' W 005°24'4 8.1
2017-Jun-22 09:00N 56°38' W 005°21'4 8.3
2017-Jun-22 08:30N 56°41' W 005°17'510.2
2017-Jun-22 08:00N 56°46' W 005°12'  
2017-Jun-16 12:35N 56°47' W 005°10'111.2
2017-Jun-16 12:28N 56°46' W 005°12'510.4
2017-Jun-16 12:00N 56°42' W 005°16'510.6
2017-Jun-16 11:30N 56°37' W 005°22'5 9.8
2017-Jun-16 11:00N 56°33' W 005°26'510.6
2017-Jun-16 10:30N 56°28' W 005°30'3 0.2
2017-Jun-15 20:12N 56°25' W 005°29'0 0.0
2017-Jun-15 17:22N 56°25' W 005°29'1 2.8
2017-Jun-15 17:00N 56°26' W 005°30'510.2
2017-Jun-15 16:29N 56°28' W 005°39'2 0.8
2017-Jun-15 13:54N 56°28' W 005°42'0 0.0
2017-Jun-15 13:30N 56°28' W 005°42'0 0.0
2017-Jun-15 12:59N 56°28' W 005°42'0 0.0
2017-Jun-15 12:30N 56°28' W 005°42'0 0.0
2017-Jun-15 11:57N 56°28' W 005°42'0 0.0
2017-Jun-15 11:04N 56°28' W 005°42'0 0.0
2017-Jun-15 11:00N 56°28' W 005°42'0 0.0
2017-Jun-15 10:30N 56°28' W 005°42'0 0.0
2017-Jun-15 10:00N 56°28' W 005°42'0 0.0
2017-Jun-15 09:23N 56°28' W 005°42'0 0.0
2017-Jun-15 09:00N 56°28' W 005°42'0 0.0
2017-Jun-15 08:30N 56°28' W 005°42'0 0.0
2017-Jun-15 08:00N 56°28' W 005°42'0 0.0
2017-Jun-15 07:30N 56°28' W 005°42'0 0.0
2017-Jun-15 07:00N 56°28' W 005°42'3 4.2
2017-Jun-15 06:25N 56°30' W 005°45'  

Dump ship's entire track history